sensor_id;sensor_type;location;lat;lon;timestamp;pressure;altitude;pressure_sealevel;temperature;humidity
20105;BME280;10212;42.714;23.310;2023-10-13T06:26:50;95812.41;;;9.47;92.28
20105;BME280;10212;42.714;23.310;2023-10-13T06:37:12;95816.19;;;9.89;90.16
20105;BME280;10212;42.714;23.310;2023-10-13T06:47:27;95820.28;;;10.29;89.17
20105;BME280;10212;42.714;23.310;2023-10-13T06:57:28;95814.84;;;10.61;87.62
20105;BME280;10212;42.714;23.310;2023-10-13T07:07:35;95789.00;;;10.88;86.45
20105;BME280;10212;42.714;23.310;2023-10-13T07:17:37;95805.19;;;11.27;84.86
20105;BME280;10212;42.714;23.310;2023-10-13T07:27:40;95802.19;;;11.59;82.25
20105;BME280;10212;42.714;23.310;2023-10-13T07:37:40;95793.59;;;12.08;81.04
20105;BME280;10212;42.714;23.310;2023-10-13T07:47:43;95789.94;;;12.58;80.22
20105;BME280;10212;42.714;23.310;2023-10-13T07:57:45;95789.84;;;13.07;77.75
20105;BME280;10212;42.714;23.310;2023-10-13T08:07:54;95762.56;;;13.76;75.22
20105;BME280;10212;42.714;23.310;2023-10-13T08:17:56;95766.56;;;14.38;71.00
20105;BME280;10212;42.714;23.310;2023-10-13T08:27:58;95794.47;;;14.64;69.91
20105;BME280;10212;42.714;23.310;2023-10-13T08:38:28;95764.94;;;15.27;68.08
20105;BME280;10212;42.714;23.310;2023-10-13T08:48:43;95776.09;;;15.66;66.54
20105;BME280;10212;42.714;23.310;2023-10-13T08:58:48;95756.97;;;15.78;66.58
20105;BME280;10212;42.714;23.310;2023-10-13T09:09:04;95750.75;;;16.29;64.57
20105;BME280;10212;42.714;23.310;2023-10-13T09:19:05;95749.41;;;16.93;63.07
20105;BME280;10212;42.714;23.310;2023-10-13T09:29:17;95729.91;;;17.90;59.00
20105;BME280;10212;42.714;23.310;2023-10-13T09:39:18;95717.81;;;18.99;55.10
20105;BME280;10212;42.714;23.310;2023-10-13T09:49:32;95707.88;;;19.23;53.81
20105;BME280;10212;42.714;23.310;2023-10-13T09:59:47;95700.28;;;19.49;51.13
20105;BME280;10212;42.714;23.310;2023-10-13T10:10:01;95687.13;;;19.99;49.03
20105;BME280;10212;42.714;23.310;2023-10-13T10:20:03;95665.34;;;20.47;48.04
20105;BME280;10212;42.714;23.310;2023-10-13T10:30:26;95665.84;;;21.10;43.54
20105;BME280;10212;42.714;23.310;2023-10-13T10:40:27;95660.75;;;21.57;42.44
20105;BME280;10212;42.714;23.310;2023-10-13T10:50:54;95647.88;;;21.92;40.14
20105;BME280;10212;42.714;23.310;2023-10-13T11:01:06;95651.94;;;22.31;38.33
20105;BME280;10212;42.714;23.310;2023-10-13T11:11:30;95638.09;;;22.19;37.95
20105;BME280;10212;42.714;23.310;2023-10-13T11:21:35;95625.63;;;22.40;37.26
20105;BME280;10212;42.714;23.310;2023-10-13T11:31:37;95608.41;;;22.63;36.71
20105;BME280;10212;42.714;23.310;2023-10-13T11:41:38;95598.28;;;22.66;37.67
20105;BME280;10212;42.714;23.310;2023-10-13T11:51:47;95601.47;;;22.73;36.81
20105;BME280;10212;42.714;23.310;2023-10-13T12:01:48;95589.66;;;23.10;35.14
20105;BME280;10212;42.714;23.310;2023-10-13T12:12:07;95585.38;;;23.25;34.14
20105;BME280;10212;42.714;23.310;2023-10-13T12:22:09;95572.59;;;23.27;33.99
20105;BME280;10212;42.714;23.310;2023-10-13T12:32:18;95563.78;;;23.32;33.14
20105;BME280;10212;42.714;23.310;2023-10-13T12:42:30;95562.78;;;23.17;33.30
20105;BME280;10212;42.714;23.310;2023-10-13T12:52:50;95558.00;;;23.19;33.66
20105;BME280;10212;42.714;23.310;2023-10-13T13:02:50;95546.59;;;23.03;33.62
20105;BME280;10212;42.714;23.310;2023-10-13T13:12:52;95548.47;;;23.08;33.50
20105;BME280;10212;42.714;23.310;2023-10-13T13:22:53;95547.56;;;23.28;32.96
20105;BME280;10212;42.714;23.310;2023-10-13T13:32:54;95545.38;;;23.46;32.89
20105;BME280;10212;42.714;23.310;2023-10-13T13:42:55;95542.19;;;23.49;32.94
20105;BME280;10212;42.714;23.310;2023-10-13T13:52:57;95545.63;;;23.49;33.44
20105;BME280;10212;42.714;23.310;2023-10-13T14:02:57;95545.47;;;23.25;36.12
20105;BME280;10212;42.714;23.310;2023-10-13T14:13:01;95547.31;;;23.24;34.71
20105;BME280;10212;42.714;23.310;2023-10-13T14:23:14;95549.22;;;23.19;36.06
20105;BME280;10212;42.714;23.310;2023-10-13T14:33:15;95549.47;;;23.28;37.04
20105;BME280;10212;42.714;23.310;2023-10-13T14:43:15;95543.38;;;23.22;37.67
20105;BME280;10212;42.714;23.310;2023-10-13T14:53:15;95546.59;;;23.03;38.28
20105;BME280;10212;42.714;23.310;2023-10-13T15:03:19;95541.13;;;22.68;39.42
20105;BME280;10212;42.714;23.310;2023-10-13T15:13:20;95539.84;;;22.29;39.46
20105;BME280;10212;42.714;23.310;2023-10-13T15:23:22;95546.75;;;21.99;39.70
20105;BME280;10212;42.714;23.310;2023-10-13T15:33:25;95555.69;;;21.56;40.58
20105;BME280;10212;42.714;23.310;2023-10-13T15:43:26;95559.28;;;21.13;40.88
20105;BME280;10212;42.714;23.310;2023-10-13T15:53:28;95560.63;;;20.72;41.74
20105;BME280;10212;42.714;23.310;2023-10-13T16:03:29;95570.44;;;20.34;42.71
20105;BME280;10212;42.714;23.310;2023-10-13T16:13:29;95584.44;;;20.02;43.77
20105;BME280;10212;42.714;23.310;2023-10-13T16:23:31;95606.31;;;19.64;44.16
20105;BME280;10212;42.714;23.310;2023-10-13T16:33:31;95603.84;;;19.57;44.45
20105;BME280;10212;42.714;23.310;2023-10-13T16:43:35;95616.31;;;19.62;43.78
20105;BME280;10212;42.714;23.310;2023-10-13T16:53:36;95606.06;;;19.43;44.50
20105;BME280;10212;42.714;23.310;2023-10-13T17:03:38;95612.94;;;19.44;44.39
20105;BME280;10212;42.714;23.310;2023-10-13T17:13:38;95621.25;;;19.31;44.79
20105;BME280;10212;42.714;23.310;2023-10-13T17:23:39;95623.88;;;19.08;46.80
20105;BME280;10212;42.714;23.310;2023-10-13T17:33:40;95627.44;;;18.62;49.20
20105;BME280;10212;42.714;23.310;2023-10-13T17:43:40;95634.84;;;18.14;51.73
20105;BME280;10212;42.714;23.310;2023-10-13T17:53:42;95637.59;;;17.78;53.29
20105;BME280;10212;42.714;23.310;2023-10-13T18:03:53;95626.81;;;17.50;54.54
20105;BME280;10212;42.714;23.310;2023-10-13T18:13:54;95636.75;;;17.19;56.06
20105;BME280;10212;42.714;23.310;2023-10-13T18:23:54;95650.72;;;16.83;58.22
20105;BME280;10212;42.714;23.310;2023-10-13T18:33:55;95659.59;;;16.58;59.52
20105;BME280;10212;42.714;23.310;2023-10-13T18:43:58;95662.06;;;16.29;60.74
20105;BME280;10212;42.714;23.310;2023-10-13T18:53:59;95672.78;;;16.15;61.34
20105;BME280;10212;42.714;23.310;2023-10-13T19:04:03;95669.97;;;15.79;62.27
20105;BME280;10212;42.714;23.310;2023-10-13T19:14:07;95672.53;;;15.67;63.48
20105;BME280;10212;42.714;23.310;2023-10-13T19:24:10;95662.00;;;15.37;67.42
20105;BME280;10212;42.714;23.310;2023-10-13T19:34:11;95663.47;;;15.07;70.53
20105;BME280;10212;42.714;23.310;2023-10-13T19:44:17;95660.44;;;15.10;70.39
20105;BME280;10212;42.714;23.310;2023-10-13T19:54:18;95668.72;;;14.88;71.32
20105;BME280;10212;42.714;23.310;2023-10-13T20:04:18;95679.16;;;14.69;71.74
20105;BME280;10212;42.714;23.310;2023-10-13T20:14:19;95690.44;;;14.70;72.70
20105;BME280;10212;42.714;23.310;2023-10-13T20:24:21;95675.94;;;14.67;71.95
20105;BME280;10212;42.714;23.310;2023-10-13T20:34:24;95673.31;;;14.35;71.50
20105;BME280;10212;42.714;23.310;2023-10-13T20:44:29;95672.22;;;14.17;70.76
20105;BME280;10212;42.714;23.310;2023-10-13T20:54:29;95670.34;;;13.92;72.03
20105;BME280;10212;42.714;23.310;2023-10-13T21:04:30;95667.56;;;13.80;72.57
20105;BME280;10212;42.714;23.310;2023-10-13T21:14:31;95668.88;;;13.57;74.15
20105;BME280;10212;42.714;23.310;2023-10-13T21:24:34;95666.47;;;13.56;72.22
20105;BME280;10212;42.714;23.310;2023-10-13T21:34:36;95664.66;;;13.49;73.43
20105;BME280;10212;42.714;23.310;2023-10-13T21:44:37;95653.69;;;13.13;75.50
20105;BME280;10212;42.714;23.310;2023-10-13T21:54:37;95667.81;;;12.78;77.46
20105;BME280;10212;42.714;23.310;2023-10-13T22:04:38;95649.09;;;12.54;78.57
20105;BME280;10212;42.714;23.310;2023-10-13T22:14:38;95649.72;;;12.57;78.82
20105;BME280;10212;42.714;23.310;2023-10-13T22:24:38;95643.66;;;12.49;79.04
20105;BME280;10212;42.714;23.310;2023-10-13T22:34:42;95647.28;;;12.35;79.33
20105;BME280;10212;42.714;23.310;2023-10-13T22:44:42;95649.22;;;12.05;81.87
20105;BME280;10212;42.714;23.310;2023-10-13T22:54:43;95646.63;;;12.05;81.23
20105;BME280;10212;42.714;23.310;2023-10-13T23:04:44;95643.75;;;11.87;82.91
20105;BME280;10212;42.714;23.310;2023-10-13T23:14:51;95651.91;;;11.56;84.87
20105;BME280;10212;42.714;23.310;2023-10-13T23:24:51;95649.97;;;11.79;83.41
20105;BME280;10212;42.714;23.310;2023-10-13T23:34:51;95653.75;;;11.76;82.91
20105;BME280;10212;42.714;23.310;2023-10-13T23:44:52;95644.22;;;11.48;83.75
20105;BME280;10212;42.714;23.310;2023-10-13T23:55:06;95626.94;;;11.47;83.62
